Time;durP1;ratioP1;P1;durP2;ratioP2;P2;SDS_P1;SDS_P2;PMS_P1;PMS_P2;Temp;Humidity;BMP_temperature;BMP_pressure;BME280_temperature;BME280_humidity;BME280_pressure;Samples;Min_cycle;Max_cycle;Signal;HPM_P1;HPM_P2
2022/05/01 00:01:35;;;;;;;;;;;24.20;38.40;;;;;;1534387;76;1447;-55
2022/05/01 00:03:39;;;;;;;;;;;24.20;38.50;;;;;;1534166;76;679;-54
2022/05/01 00:05:40;;;;;;;;;;;24.20;38.50;;;;;;1533980;76;1619;-56
2022/05/01 00:07:43;;;;;;;;;;;24.20;38.50;;;;;;1534483;76;1925;-53
2022/05/01 00:09:45;;;;;;;;;;;24.20;38.60;;;;;;1533296;77;1163;-53
2022/05/01 00:11:47;;;;;;;;;;;24.20;38.50;;;;;;1534401;76;706;-56
2022/05/01 00:13:49;;;;;;;;;;;24.20;38.60;;;;;;1534515;77;684;-55
2022/05/01 00:15:51;;;;;;;;;;;24.20;38.50;;;;;;1534653;76;1356;-54
2022/05/01 00:17:52;;;;;;;;;;;24.20;38.60;;;;;;1534424;76;696;-55
2022/05/01 00:19:55;;;;;;;;;;;24.20;38.60;;;;;;1531503;76;1171;-56
2022/05/01 00:21:59;;;;;;;;;;;24.20;38.60;;;;;;1524906;77;739;-53
2022/05/01 00:24:00;;;;;;;;;;;24.20;38.60;;;;;;1529767;76;1594;-55
2022/05/01 00:26:03;;;;;;;;;;;24.20;38.70;;;;;;1533711;77;653;-53
2022/05/01 00:28:05;;;;;;;;;;;24.20;38.70;;;;;;1534151;76;1937;-54
2022/05/01 00:30:07;;;;;;;;;;;24.20;38.70;;;;;;1534498;76;1618;-55
2022/05/01 00:32:09;;;;;;;;;;;24.20;38.70;;;;;;1534114;76;723;-57
2022/05/01 00:36:26;;;;;;;;;;;24.20;38.70;;;;;;1497093;77;1049;-54
2022/05/01 00:38:28;;;;;;;;;;;24.20;38.70;;;;;;1534416;77;752;-56
2022/05/01 00:40:30;;;;;;;;;;;24.10;38.70;;;;;;1534405;77;1131;-55
2022/05/01 00:42:32;;;;;;;;;;;24.20;38.70;;;;;;1533724;77;1479;-55
2022/05/01 00:44:34;;;;;;;;;;;24.20;38.80;;;;;;1534123;76;655;-55
2022/05/01 00:46:39;;;;;;;;;;;24.20;38.80;;;;;;1534228;76;687;-55
2022/05/01 00:48:41;;;;;;;;;;;24.10;38.80;;;;;;1534218;76;1912;-55
2022/05/01 00:50:43;;;;;;;;;;;24.20;38.80;;;;;;1534413;76;1118;-54
2022/05/01 00:52:45;;;;;;;;;;;24.00;38.60;;;;;;1526416;76;689;-55
2022/05/01 00:54:47;;;;;;;;;;;24.10;38.80;;;;;;1523129;76;624;-55
2022/05/01 00:56:52;;;;;;;;;;;24.10;38.80;;;;;;1537173;76;1538;-57
2022/05/01 00:58:54;;;;;;;;;;;24.10;38.80;;;;;;1532013;76;635;-56
2022/05/01 01:00:56;;;;;;;;;;;24.10;38.90;;;;;;1534175;76;1108;-55
2022/05/01 01:02:58;;;;;;;;;;;24.00;38.80;;;;;;1530809;76;727;-55
2022/05/01 01:05:00;;;;;;;;;;;24.10;38.90;;;;;;1540053;73;230046;-67
2022/05/01 01:07:03;;;;;;;;;;;24.10;38.90;;;;;;1544368;76;722;-68
2022/05/01 01:09:05;;;;;;;;;;;24.10;38.90;;;;;;1560138;75;1923;-70
2022/05/01 01:11:06;;;;;;;;;;;24.10;38.90;;;;;;1536306;76;1549;-68
2022/05/01 01:13:08;;;;;;;;;;;24.10;39.00;;;;;;1527425;76;1202;-68
2022/05/01 01:15:11;;;;;;;;;;;24.10;39.00;;;;;;1522564;77;751;-67
2022/05/01 01:17:13;;;;;;;;;;;24.00;38.90;;;;;;1507482;77;697;-67
2022/05/01 01:19:14;;;;;;;;;;;24.00;38.90;;;;;;1498252;78;802;-66
2022/05/01 01:21:16;;;;;;;;;;;24.00;38.90;;;;;;1516269;78;762;-67
2022/05/01 01:23:18;;;;;;;;;;;24.00;38.90;;;;;;1506228;77;1147;-67
2022/05/01 01:25:25;;;;;;;;;;;24.00;39.00;;;;;;1499704;77;1582;-67
2022/05/01 01:27:27;;;;;;;;;;;24.10;39.20;;;;;;1511297;78;695;-67
2022/05/01 01:31:49;;;;;;;;;;;24.10;39.20;;;;;;1514994;78;1600;-66
2022/05/01 01:33:54;;;;;;;;;;;24.00;39.00;;;;;;1499693;77;1165;-67
2022/05/01 01:35:56;;;;;;;;;;;24.00;39.00;;;;;;1520335;78;672;-66
2022/05/01 01:37:58;;;;;;;;;;;24.10;39.20;;;;;;1506869;77;656;-66
2022/05/01 01:40:00;;;;;;;;;;;24.00;39.10;;;;;;1515276;77;1577;-67
2022/05/01 01:42:03;;;;;;;;;;;24.00;39.10;;;;;;1526328;77;639;-67
2022/05/01 01:44:06;;;;;;;;;;;24.00;39.10;;;;;;1511262;77;1161;-67
2022/05/01 01:46:07;;;;;;;;;;;24.00;39.10;;;;;;1499698;78;722;-67
2022/05/01 01:48:11;;;;;;;;;;;24.00;39.10;;;;;;1579074;74;1934;-68
2022/05/01 01:50:13;;;;;;;;;;;24.00;39.10;;;;;;1575123;74;1624;-67
2022/05/01 01:52:15;;;;;;;;;;;24.10;39.30;;;;;;1570441;74;669;-66
2022/05/01 01:54:17;;;;;;;;;;;24.00;39.20;;;;;;1558721;74;1620;-67
2022/05/01 01:56:18;;;;;;;;;;;24.00;39.20;;;;;;1553519;74;697;-67
2022/05/01 01:58:21;;;;;;;;;;;24.00;39.20;;;;;;1548697;74;671;-66
2022/05/01 02:00:22;;;;;;;;;;;24.00;39.20;;;;;;1556149;74;791;-66
2022/05/01 02:02:24;;;;;;;;;;;24.00;39.20;;;;;;1557455;74;710;-70
2022/05/01 02:04:26;;;;;;;;;;;24.00;39.20;;;;;;1562206;74;1150;-67
2022/05/01 02:06:28;;;;;;;;;;;24.00;39.20;;;;;;1570671;74;666;-67
2022/05/01 02:08:30;;;;;;;;;;;24.00;39.20;;;;;;1570508;74;1957;-66
2022/05/01 02:10:32;;;;;;;;;;;24.00;39.20;;;;;;1571477;75;687;-66
2022/05/01 02:12:34;;;;;;;;;;;24.00;39.20;;;;;;1552585;74;651;-67
2022/05/01 02:14:35;;;;;;;;;;;24.00;39.20;;;;;;1561913;74;1190;-67
2022/05/01 02:16:37;;;;;;;;;;;24.00;39.20;;;;;;1582219;74;695;-68
2022/05/01 02:18:39;;;;;;;;;;;24.00;39.20;;;;;;1562502;74;731;-67
2022/05/01 02:23:01;;;;;;;;;;;23.90;39.30;;;;;;1569709;74;1683;-65
2022/05/01 02:25:03;;;;;;;;;;;24.00;39.20;;;;;;1583387;74;711;-63
2022/05/01 02:27:05;;;;;;;;;;;24.00;39.00;;;;;;1566807;74;674;-66
2022/05/01 02:29:09;;;;;;;;;;;24.00;39.00;;;;;;1566392;74;1942;-64
2022/05/01 02:31:11;;;;;;;;;;;24.00;38.90;;;;;;1567026;74;665;-64
2022/05/01 02:33:13;;;;;;;;;;;24.00;38.90;;;;;;1558772;74;1158;-64
2022/05/01 02:35:17;;;;;;;;;;;24.00;38.90;;;;;;1551562;74;1518;-65
2022/05/01 02:37:19;;;;;;;;;;;24.00;38.80;;;;;;1546076;74;910;-64
2022/05/01 02:39:22;;;;;;;;;;;24.00;38.80;;;;;;1537357;74;667;-67
2022/05/01 02:41:24;;;;;;;;;;;24.10;38.90;;;;;;1550812;74;748;-67
2022/05/01 02:43:26;;;;;;;;;;;24.20;38.60;;;;;;1544940;74;1165;-67
2022/05/01 02:45:28;;;;;;;;;;;24.30;38.60;;;;;;1538482;74;732;-65
2022/05/01 02:47:30;;;;;;;;;;;24.30;38.40;;;;;;1549303;74;802;-65
2022/05/01 02:49:34;;;;;;;;;;;24.30;38.30;;;;;;1546515;75;1914;-66
2022/05/01 02:51:36;;;;;;;;;;;24.40;38.10;;;;;;1544314;74;634;-65
2022/05/01 02:53:38;;;;;;;;;;;24.50;38.10;;;;;;1542111;74;1152;-65
2022/05/01 02:55:40;;;;;;;;;;;24.50;37.90;;;;;;1543316;74;677;-65
2022/05/01 02:57:42;;;;;;;;;;;24.60;37.80;;;;;;1546648;74;713;-66
2022/05/01 02:59:44;;;;;;;;;;;24.50;37.70;;;;;;1541903;74;609;-64
2022/05/01 03:01:46;;;;;;;;;;;24.50;37.70;;;;;;1541261;74;701;-65
2022/05/01 03:03:48;;;;;;;;;;;24.40;37.80;;;;;;1545594;74;1400;-65
2022/05/01 03:05:51;;;;;;;;;;;24.40;37.70;;;;;;1555225;75;781;-64
2022/05/01 03:07:56;;;;;;;;;;;24.40;37.60;;;;;;1543285;74;656;-65
2022/05/01 03:09:58;;;;;;;;;;;24.30;37.70;;;;;;1549719;74;1928;-65
2022/05/01 03:12:00;;;;;;;;;;;24.20;37.50;;;;;;1550129;74;902;-68
2022/05/01 03:14:02;;;;;;;;;;;24.20;37.60;;;;;;1540137;74;1239;-66
2022/05/01 03:16:04;;;;;;;;;;;24.10;37.60;;;;;;1546108;74;749;-66
2022/05/01 03:22:45;;;;;;;;;;;24.10;37.90;;;;;;1546246;74;728;-67
2022/05/01 03:24:47;;;;;;;;;;;24.10;38.00;;;;;;1541209;75;1124;-64
2022/05/01 03:26:48;;;;;;;;;;;24.10;37.80;;;;;;1545779;74;678;-66
2022/05/01 03:28:50;;;;;;;;;;;24.10;37.80;;;;;;1543067;74;1933;-66
2022/05/01 03:30:56;;;;;;;;;;;24.10;37.80;;;;;;1545864;74;708;-65
2022/05/01 03:32:58;;;;;;;;;;;24.10;37.90;;;;;;1538972;74;1607;-65
2022/05/01 03:35:00;;;;;;;;;;;24.10;37.90;;;;;;1544711;74;1166;-66
2022/05/01 03:37:02;;;;;;;;;;;24.10;37.90;;;;;;1544234;74;728;-65
2022/05/01 03:39:05;;;;;;;;;;;24.20;37.80;;;;;;1541539;74;712;-65
2022/05/01 03:41:07;;;;;;;;;;;24.20;37.80;;;;;;1559479;74;667;-65
2022/05/01 03:43:09;;;;;;;;;;;24.20;37.90;;;;;;1543849;74;1159;-65
2022/05/01 03:45:11;;;;;;;;;;;24.20;37.60;;;;;;1552018;74;683;-65
2022/05/01 03:47:12;;;;;;;;;;;24.20;37.50;;;;;;1555509;74;1671;-66
2022/05/01 03:49:14;;;;;;;;;;;24.20;37.50;;;;;;1546484;74;1943;-66
2022/05/01 03:51:16;;;;;;;;;;;24.20;37.60;;;;;;1542436;74;748;-67
2022/05/01 03:53:18;;;;;;;;;;;24.20;37.60;;;;;;1548028;74;1149;-66
2022/05/01 03:55:20;;;;;;;;;;;24.20;37.70;;;;;;1555684;74;779;-65
2022/05/01 03:57:22;;;;;;;;;;;24.20;37.40;;;;;;1552235;74;637;-65
2022/05/01 03:59:24;;;;;;;;;;;24.20;37.40;;;;;;1549015;74;1531;-64
2022/05/01 04:01:26;;;;;;;;;;;24.20;37.50;;;;;;1549160;75;694;-67
2022/05/01 04:03:28;;;;;;;;;;;24.20;37.60;;;;;;1544650;74;1139;-65
2022/05/01 04:05:32;;;;;;;;;;;24.20;37.60;;;;;;1552130;74;1083;-64
2022/05/01 04:07:33;;;;;;;;;;;24.20;37.60;;;;;;1547482;74;1483;-65
2022/05/01 04:09:36;;;;;;;;;;;24.20;37.60;;;;;;1553833;74;1940;-65
2022/05/01 04:11:38;;;;;;;;;;;24.20;37.60;;;;;;1538324;74;719;-64
2022/05/01 04:13:40;;;;;;;;;;;24.20;37.60;;;;;;1547396;74;1431;-65
2022/05/01 04:15:42;;;;;;;;;;;24.20;37.50;;;;;;1547964;74;617;-64
2022/05/01 04:17:44;;;;;;;;;;;24.30;37.50;;;;;;1550281;74;729;-65
2022/05/01 04:19:47;;;;;;;;;;;24.30;37.40;;;;;;1545627;74;697;-66
2022/05/01 04:21:49;;;;;;;;;;;24.50;37.30;;;;;;1546646;74;697;-64
2022/05/01 04:23:51;;;;;;;;;;;24.50;37.10;;;;;;1550813;74;1124;-64
2022/05/01 04:25:53;;;;;;;;;;;24.50;36.90;;;;;;1551255;74;701;-64
2022/05/01 04:27:59;;;;;;;;;;;24.50;36.90;;;;;;1551574;74;1575;-63
2022/05/01 04:30:01;;;;;;;;;;;24.50;36.80;;;;;;1559641;74;1939;-67
2022/05/01 04:32:05;;;;;;;;;;;24.60;36.70;;;;;;1552834;74;735;-64
2022/05/01 04:34:06;;;;;;;;;;;24.60;36.80;;;;;;1557647;74;1164;-65
2022/05/01 04:36:08;;;;;;;;;;;24.60;36.70;;;;;;1561115;74;734;-64
2022/05/01 04:38:15;;;;;;;;;;;24.60;36.60;;;;;;1562323;74;738;-65
2022/05/01 04:40:17;;;;;;;;;;;24.50;36.70;;;;;;1555189;74;777;-65
2022/05/01 04:42:19;;;;;;;;;;;24.50;36.80;;;;;;1561657;74;1581;-64
2022/05/01 04:44:21;;;;;;;;;;;24.50;36.90;;;;;;1555133;74;1152;-63
2022/05/01 04:46:23;;;;;;;;;;;24.50;36.90;;;;;;1560186;74;702;-65
2022/05/01 04:48:25;;;;;;;;;;;24.50;36.80;;;;;;1566238;75;776;-65
2022/05/01 04:50:27;;;;;;;;;;;24.50;36.90;;;;;;1562962;74;1930;-64
2022/05/01 04:52:29;;;;;;;;;;;24.50;36.90;;;;;;1554128;74;631;-64
2022/05/01 04:54:31;;;;;;;;;;;24.40;36.90;;;;;;1564853;74;1170;-64
2022/05/01 04:58:52;;;;;;;;;;;24.50;37.00;;;;;;1561288;75;1623;-64
2022/05/01 05:00:55;;;;;;;;;;;24.50;36.80;;;;;;1556585;75;769;-65
2022/05/01 05:02:57;;;;;;;;;;;24.50;36.80;;;;;;1557847;74;789;-64
2022/05/01 05:04:59;;;;;;;;;;;24.60;36.80;;;;;;1561214;74;1109;-64
2022/05/01 05:07:00;;;;;;;;;;;24.60;36.70;;;;;;1565866;74;799;-64
2022/05/01 05:11:22;;;;;;;;;;;24.60;36.50;;;;;;1566664;74;1621;-65
2022/05/01 05:13:27;;;;;;;;;;;24.70;36.70;;;;;;1560124;74;1179;-64
2022/05/01 05:15:28;;;;;;;;;;;24.60;36.80;;;;;;1564286;74;1718;-64
2022/05/01 05:17:33;;;;;;;;;;;24.50;36.90;;;;;;1567611;74;632;-66
2022/05/01 05:19:35;;;;;;;;;;;24.50;37.00;;;;;;1561623;74;774;-65
2022/05/01 05:21:36;;;;;;;;;;;24.50;37.10;;;;;;1565156;74;678;-64
2022/05/01 05:23:38;;;;;;;;;;;24.40;37.10;;;;;;1559762;74;1135;-64
2022/05/01 05:25:40;;;;;;;;;;;24.50;37.20;;;;;;1561238;74;1308;-62
2022/05/01 05:27:42;;;;;;;;;;;24.40;37.20;;;;;;1568204;74;725;-64
2022/05/01 05:29:44;;;;;;;;;;;24.30;37.20;;;;;;1575944;74;1935;-64
2022/05/01 05:31:46;;;;;;;;;;;24.40;37.30;;;;;;1559432;74;740;-66
2022/05/01 05:33:48;;;;;;;;;;;24.50;37.10;;;;;;1565337;74;1140;-64
2022/05/01 05:35:49;;;;;;;;;;;24.50;36.90;;;;;;1559102;74;750;-64
2022/05/01 05:37:51;;;;;;;;;;;24.70;36.90;;;;;;1564137;74;1585;-64
2022/05/01 05:39:53;;;;;;;;;;;24.60;36.60;;;;;;1564156;75;737;-65
2022/05/01 05:41:55;;;;;;;;;;;24.70;36.70;;;;;;1565123;74;619;-64
2022/05/01 05:43:57;;;;;;;;;;;24.70;36.60;;;;;;1556696;75;1141;-65
2022/05/01 05:45:59;;;;;;;;;;;24.70;36.50;;;;;;1565569;75;719;-65
2022/05/01 05:48:02;;;;;;;;;;;24.70;36.80;;;;;;1571113;74;719;-66
2022/05/01 05:50:04;;;;;;;;;;;24.70;36.80;;;;;;1565387;74;1923;-64
2022/05/01 05:52:06;;;;;;;;;;;24.70;36.80;;;;;;1570788;74;1567;-66
2022/05/01 05:54:08;;;;;;;;;;;24.70;36.80;;;;;;1564654;74;1113;-65
2022/05/01 05:56:10;;;;;;;;;;;24.70;36.80;;;;;;1557052;74;714;-64
2022/05/01 05:58:12;;;;;;;;;;;24.70;36.80;;;;;;1563806;74;689;-62
2022/05/01 06:00:14;;;;;;;;;;;24.60;36.70;;;;;;1573741;74;687;-63
2022/05/01 06:02:16;;;;;;;;;;;24.60;36.80;;;;;;1576673;74;682;-64
2022/05/01 06:04:18;;;;;;;;;;;24.70;36.90;;;;;;1569968;74;1145;-64
2022/05/01 06:06:20;;;;;;;;;;;24.60;37.00;;;;;;1563347;74;1512;-63
2022/05/01 06:08:21;;;;;;;;;;;24.60;37.00;;;;;;1570676;74;558;-63
2022/05/01 06:10:23;;;;;;;;;;;24.60;37.10;;;;;;1550503;75;1927;-66
2022/05/01 06:12:25;;;;;;;;;;;24.50;37.20;;;;;;1571167;74;656;-63
2022/05/01 06:14:27;;;;;;;;;;;24.50;37.30;;;;;;1565191;74;1186;-65
2022/05/01 06:16:31;;;;;;;;;;;24.30;37.40;;;;;;1573179;75;716;-66
2022/05/01 06:18:32;;;;;;;;;;;24.40;37.50;;;;;;1560728;74;1669;-65
2022/05/01 06:20:34;;;;;;;;;;;24.40;37.60;;;;;;1570109;74;1358;-64
2022/05/01 06:22:36;;;;;;;;;;;24.40;37.60;;;;;;1573734;74;760;-65
2022/05/01 06:24:38;;;;;;;;;;;24.50;37.50;;;;;;1584271;73;1153;-64
2022/05/01 06:26:40;;;;;;;;;;;24.60;37.10;;;;;;1562446;74;738;-62
2022/05/01 06:28:42;;;;;;;;;;;24.70;37.00;;;;;;1562916;74;737;-62
2022/05/01 06:30:45;;;;;;;;;;;24.70;36.80;;;;;;1566105;74;1949;-65
2022/05/01 06:32:47;;;;;;;;;;;24.70;36.70;;;;;;1563878;74;754;-62
2022/05/01 06:34:49;;;;;;;;;;;24.70;36.70;;;;;;1552643;74;1598;-65
2022/05/01 06:36:51;;;;;;;;;;;24.80;36.60;;;;;;1581131;74;758;-64
2022/05/01 06:38:53;;;;;;;;;;;24.80;36.50;;;;;;1553872;74;727;-68
2022/05/01 06:40:55;;;;;;;;;;;24.70;36.50;;;;;;1558481;74;804;-72
2022/05/01 06:42:57;;;;;;;;;;;24.70;36.50;;;;;;1564480;74;683;-71
2022/05/01 06:44:58;;;;;;;;;;;24.60;36.40;;;;;;1561456;73;1093;-67
2022/05/01 06:47:00;;;;;;;;;;;24.50;36.30;;;;;;1556278;74;687;-67
2022/05/01 06:49:02;;;;;;;;;;;24.50;36.30;;;;;;1574482;74;1580;-62
2022/05/01 06:51:04;;;;;;;;;;;24.40;36.40;;;;;;1568886;75;1935;-65
2022/05/01 06:53:06;;;;;;;;;;;24.30;36.40;;;;;;1575578;74;1167;-65
2022/05/01 06:55:09;;;;;;;;;;;24.30;36.40;;;;;;1560837;74;708;-65
2022/05/01 06:57:11;;;;;;;;;;;24.30;36.60;;;;;;1577622;74;736;-65
2022/05/01 06:59:13;;;;;;;;;;;24.30;36.60;;;;;;1571754;74;666;-63
2022/05/01 07:01:15;;;;;;;;;;;24.30;36.60;;;;;;1569881;74;653;-63
2022/05/01 07:05:25;;;;;;;;;;;24.30;36.70;;;;;;1564163;73;2065;-69
2022/05/01 07:07:27;;;;;;;;;;;24.30;36.70;;;;;;1574687;75;577;-70
2022/05/01 07:09:28;;;;;;;;;;;24.30;36.80;;;;;;1574536;74;654;-70
2022/05/01 07:11:30;;;;;;;;;;;24.30;36.80;;;;;;1571817;75;1936;-66
2022/05/01 07:13:32;;;;;;;;;;;24.30;36.80;;;;;;1574276;74;1213;-67
2022/05/01 07:15:34;;;;;;;;;;;24.30;37.00;;;;;;1599119;74;769;-67
2022/05/01 07:17:36;;;;;;;;;;;24.30;37.00;;;;;;1604409;74;1459;-67
2022/05/01 07:19:38;;;;;;;;;;;24.30;37.00;;;;;;1580412;74;744;-67
2022/05/01 07:21:40;;;;;;;;;;;24.20;36.90;;;;;;1605227;74;654;-65
2022/05/01 07:23:41;;;;;;;;;;;24.30;37.00;;;;;;1603486;74;1171;-67
2022/05/01 07:25:43;;;;;;;;;;;24.30;36.90;;;;;;1602206;74;657;-68
2022/05/01 07:27:45;;;;;;;;;;;24.20;36.70;;;;;;1582865;74;673;-67
2022/05/01 07:29:47;;;;;;;;;;;24.20;36.70;;;;;;1600163;74;658;-67
2022/05/01 07:31:49;;;;;;;;;;;24.10;36.50;;;;;;1598807;74;1941;-67
2022/05/01 07:33:51;;;;;;;;;;;24.20;36.50;;;;;;1602292;73;1179;-68
2022/05/01 07:35:53;;;;;;;;;;;24.10;36.50;;;;;;1593530;74;700;-68
2022/05/01 07:37:54;;;;;;;;;;;24.00;36.40;;;;;;1596029;74;698;-69
2022/05/01 07:39:56;;;;;;;;;;;24.10;36.50;;;;;;1599149;74;663;-67
2022/05/01 07:41:58;;;;;;;;;;;24.10;36.50;;;;;;1602207;74;719;-67
2022/05/01 07:44:00;;;;;;;;;;;24.00;36.50;;;;;;1595330;74;1104;-66
2022/05/01 07:46:02;;;;;;;;;;;24.00;36.50;;;;;;1596079;73;1539;-66
2022/05/01 07:48:04;;;;;;;;;;;24.00;36.50;;;;;;1598453;74;664;-68
2022/05/01 07:50:06;;;;;;;;;;;24.00;36.60;;;;;;1596243;74;642;-65
2022/05/01 07:52:09;;;;;;;;;;;24.00;36.70;;;;;;1594465;73;1936;-66
2022/05/01 07:54:11;;;;;;;;;;;24.00;36.80;;;;;;1590985;74;1152;-66
2022/05/01 07:56:12;;;;;;;;;;;23.90;36.80;;;;;;1597378;74;674;-64
2022/05/01 07:58:14;;;;;;;;;;;24.00;36.80;;;;;;1581970;74;674;-67
2022/05/01 08:00:16;;;;;;;;;;;24.00;36.80;;;;;;1600098;73;1261;-66
2022/05/01 08:02:18;;;;;;;;;;;24.00;36.80;;;;;;1598452;74;658;-67
2022/05/01 08:04:29;;;;;;;;;;;23.90;36.90;;;;;;1600571;73;1221;-66
2022/05/01 08:06:31;;;;;;;;;;;23.90;36.90;;;;;;1592011;74;687;-68
2022/05/01 08:08:36;;;;;;;;;;;23.90;37.00;;;;;;1599513;74;650;-68
2022/05/01 08:10:37;;;;;;;;;;;23.90;37.00;;;;;;1599913;74;1901;-66
2022/05/01 08:12:39;;;;;;;;;;;23.90;37.10;;;;;;1601133;74;1267;-66
2022/05/01 08:14:44;;;;;;;;;;;23.90;37.10;;;;;;1597694;74;1170;-68
2022/05/01 08:16:45;;;;;;;;;;;23.90;37.20;;;;;;1598150;74;1014;-65
2022/05/01 08:21:10;;;;;;;;;;;23.90;37.30;;;;;;1597029;74;958;-70
2022/05/01 08:23:12;;;;;;;;;;;23.90;37.40;;;;;;1600309;74;684;-68
2022/05/01 08:25:14;;;;;;;;;;;23.90;37.40;;;;;;1596410;74;1143;-74
2022/05/01 08:27:16;;;;;;;;;;;23.90;37.50;;;;;;1600689;74;1495;-69
2022/05/01 08:29:18;;;;;;;;;;;23.90;37.60;;;;;;1600841;73;707;-70
2022/05/01 08:31:20;;;;;;;;;;;23.90;37.60;;;;;;1589358;74;1896;-70
2022/05/01 08:33:22;;;;;;;;;;;23.90;37.60;;;;;;1602606;74;678;-70
2022/05/01 08:35:24;;;;;;;;;;;23.90;37.60;;;;;;1595042;73;1159;-72
2022/05/01 08:37:25;;;;;;;;;;;23.90;37.60;;;;;;1598237;73;666;-69
2022/05/01 08:39:27;;;;;;;;;;;23.90;37.80;;;;;;1593247;74;570;-75
2022/05/01 08:41:30;;;;;;;;;;;23.90;37.70;;;;;;1598123;73;1515;-70
2022/05/01 08:43:32;;;;;;;;;;;23.80;37.60;;;;;;1593925;73;1126;-68
2022/05/01 08:45:35;;;;;;;;;;;23.90;37.60;;;;;;1602049;74;730;-67
2022/05/01 08:47:45;;;;;;;;;;;23.90;37.90;;;;;;1597258;74;1980;-78
2022/05/01 08:49:47;;;;;;;;;;;23.90;38.60;;;;;;1590679;74;1105;-73
2022/05/01 08:51:49;;;;;;;;;;;23.90;38.00;;;;;;1595243;74;1926;-69
2022/05/01 08:53:51;;;;;;;;;;;24.00;38.00;;;;;;1582835;73;1125;-68
2022/05/01 08:55:53;;;;;;;;;;;24.00;38.00;;;;;;1587839;74;1457;-68
2022/05/01 08:57:55;;;;;;;;;;;24.00;38.00;;;;;;1586026;74;641;-71
2022/05/01 08:59:57;;;;;;;;;;;24.00;38.00;;;;;;1603671;74;624;-70
2022/05/01 09:02:00;;;;;;;;;;;24.00;38.10;;;;;;1604543;74;666;-68
2022/05/01 09:04:02;;;;;;;;;;;24.10;38.30;;;;;;1600549;74;1146;-67
2022/05/01 09:06:03;;;;;;;;;;;24.00;38.10;;;;;;1608053;73;806;-68
2022/05/01 09:08:05;;;;;;;;;;;24.10;38.20;;;;;;1601401;73;674;-67
2022/05/01 09:10:09;;;;;;;;;;;24.20;38.40;;;;;;1588523;74;1430;-70
2022/05/01 09:14:32;;;;;;;;;;;24.00;38.50;;;;;;1592867;74;1722;-67
2022/05/01 09:16:39;;;;;;;;;;;24.00;38.40;;;;;;1601406;74;712;-68
2022/05/01 09:18:44;;;;;;;;;;;24.00;38.60;;;;;;1591465;74;1112;-70
2022/05/01 09:21:03;;;;;;;;;;;23.90;38.70;;;;;;1579771;74;733;-71
2022/05/01 09:23:05;;;;;;;;;;;24.00;38.80;;;;;;1594235;74;1483;-67
2022/05/01 09:25:17;;;;;;;;;;;23.90;38.90;;;;;;1597910;73;1139;-71
2022/05/01 09:27:27;;;;;;;;;;;24.00;38.90;;;;;;1600172;74;669;-68
2022/05/01 09:29:32;;;;;;;;;;;24.00;38.90;;;;;;1592663;73;1042;-67
2022/05/01 09:31:46;;;;;;;;;;;24.00;38.90;;;;;;1584003;74;1922;-69
2022/05/01 09:33:48;;;;;;;;;;;24.00;38.90;;;;;;1598604;73;1214;-69
2022/05/01 09:35:49;;;;;;;;;;;23.90;39.10;;;;;;1577446;74;652;-68
2022/05/01 09:37:52;;;;;;;;;;;23.90;39.10;;;;;;1590463;74;1449;-70
2022/05/01 09:39:53;;;;;;;;;;;23.90;39.20;;;;;;1596709;74;707;-70
2022/05/01 09:41:56;;;;;;;;;;;23.90;39.10;;;;;;1592583;74;661;-65
2022/05/01 09:43:58;;;;;;;;;;;24.00;39.20;;;;;;1600307;74;1170;-67
2022/05/01 09:46:15;;;;;;;;;;;23.90;39.10;;;;;;1595936;74;645;-68
2022/05/01 09:48:20;;;;;;;;;;;24.00;39.20;;;;;;1596119;74;636;-68
2022/05/01 09:50:24;;;;;;;;;;;23.90;39.20;;;;;;1590916;74;1060;-68
2022/05/01 09:52:26;;;;;;;;;;;23.90;39.20;;;;;;1600458;73;1897;-68
2022/05/01 09:54:28;;;;;;;;;;;23.90;39.20;;;;;;1590594;74;1168;-67
2022/05/01 09:56:46;;;;;;;;;;;23.90;39.20;;;;;;1590106;74;724;-68
2022/05/01 09:58:49;;;;;;;;;;;23.90;39.20;;;;;;1600756;74;720;-70
2022/05/01 10:00:51;;;;;;;;;;;23.90;39.20;;;;;;1587978;74;1748;-67
2022/05/01 10:02:53;;;;;;;;;;;23.90;39.20;;;;;;1589402;74;677;-67
2022/05/01 10:04:55;;;;;;;;;;;23.90;39.30;;;;;;1602953;74;1118;-67
2022/05/01 10:06:57;;;;;;;;;;;23.90;39.30;;;;;;1609437;73;1636;-68
2022/05/01 10:09:01;;;;;;;;;;;23.90;39.20;;;;;;1593542;74;720;-68
2022/05/01 10:11:02;;;;;;;;;;;23.90;39.30;;;;;;1605335;74;706;-68
2022/05/01 10:13:04;;;;;;;;;;;23.90;39.30;;;;;;1584614;74;1938;-69
2022/05/01 10:15:07;;;;;;;;;;;23.90;39.30;;;;;;1598605;74;1197;-67
2022/05/01 10:17:09;;;;;;;;;;;23.90;39.30;;;;;;1598119;74;637;-68
2022/05/01 10:19:10;;;;;;;;;;;23.80;39.20;;;;;;1605214;74;1443;-70
2022/05/01 10:21:12;;;;;;;;;;;23.90;39.30;;;;;;1603814;74;598;-68
2022/05/01 10:23:14;;;;;;;;;;;23.90;39.30;;;;;;1599762;74;789;-68
2022/05/01 10:25:19;;;;;;;;;;;23.90;39.30;;;;;;1584982;74;1114;-68
2022/05/01 10:27:40;;;;;;;;;;;23.90;39.20;;;;;;1589965;74;718;-69
2022/05/01 10:32:21;;;;;;;;;;;23.90;39.20;;;;;;1581986;74;698;-68
2022/05/01 10:34:38;;;;;;;;;;;23.90;39.20;;;;;;1596371;73;1661;-67
2022/05/01 10:36:58;;;;;;;;;;;23.90;39.20;;;;;;1578572;74;542;-67
2022/05/01 10:39:04;;;;;;;;;;;23.90;39.20;;;;;;1570865;75;1366;-70
2022/05/01 10:41:07;;;;;;;;;;;23.90;39.20;;;;;;1588735;74;850;-66
2022/05/01 10:43:27;;;;;;;;;;;23.90;39.20;;;;;;1595938;74;1014;-68
2022/05/01 10:45:28;;;;;;;;;;;23.90;39.20;;;;;;1598045;74;977;-68
2022/05/01 10:47:37;;;;;;;;;;;23.90;39.20;;;;;;1602710;73;1616;-68
2022/05/01 10:49:42;;;;;;;;;;;23.90;39.20;;;;;;1577593;74;724;-68
2022/05/01 10:51:45;;;;;;;;;;;23.90;39.20;;;;;;1599804;73;1932;-68
2022/05/01 10:53:54;;;;;;;;;;;23.90;39.20;;;;;;1592865;73;1116;-66
2022/05/01 10:55:58;;;;;;;;;;;23.90;39.10;;;;;;1585755;74;1011;-68
2022/05/01 10:58:16;;;;;;;;;;;23.90;39.00;;;;;;1598882;74;1033;-69
2022/05/01 11:00:18;;;;;;;;;;;23.90;39.10;;;;;;1531301;77;1143;-68
2022/05/01 11:02:22;;;;;;;;;;;23.90;39.00;;;;;;1531210;75;1532;-68
2022/05/01 11:04:24;;;;;;;;;;;23.90;39.10;;;;;;1552287;75;1138;-68
2022/05/01 11:06:26;;;;;;;;;;;23.90;39.00;;;;;;1535437;76;813;-68
2022/05/01 11:08:29;;;;;;;;;;;24.00;38.90;;;;;;1516880;77;1067;-70
2022/05/01 11:10:31;;;;;;;;;;;23.90;38.90;;;;;;1516270;78;769;-67
2022/05/01 11:12:33;;;;;;;;;;;24.00;38.90;;;;;;1540321;76;1916;-68
2022/05/01 11:14:54;;;;;;;;;;;24.00;38.90;;;;;;1573284;75;1259;-66
2022/05/01 11:16:56;;;;;;;;;;;24.00;38.90;;;;;;1599433;74;1479;-67
2022/05/01 11:18:58;;;;;;;;;;;24.00;38.90;;;;;;1577907;74;693;-67
2022/05/01 11:21:17;;;;;;;;;;;24.00;38.90;;;;;;1595598;74;716;-68
2022/05/01 11:23:31;;;;;;;;;;;24.00;38.80;;;;;;1553085;75;1067;-65
2022/05/01 11:25:35;;;;;;;;;;;23.90;38.80;;;;;;1575588;74;1024;-67
2022/05/01 11:27:50;;;;;;;;;;;24.00;38.80;;;;;;1589007;74;1142;-68
2022/05/01 11:30:22;;;;;;;;;;;24.00;38.70;;;;;;1581994;74;1482;-69
2022/05/01 11:32:18;;;;;;;;;;;24.00;38.70;;;;;;1575806;74;1910;-65
2022/05/01 11:34:24;;;;;;;;;;;24.00;38.70;;;;;;1599857;73;1126;-68
2022/05/01 11:36:45;;;;;;;;;;;24.00;38.70;;;;;;1605088;74;672;-70
2022/05/01 11:38:48;;;;;;;;;;;24.00;38.60;;;;;;1600655;74;656;-67
2022/05/01 11:40:55;;;;;;;;;;;24.00;38.60;;;;;;1580699;74;715;-67
2022/05/01 11:43:01;;;;;;;;;;;24.00;38.60;;;;;;1590249;74;720;-68
2022/05/01 11:45:04;;;;;;;;;;;24.00;38.60;;;;;;1582139;74;1917;-67
2022/05/01 11:47:06;;;;;;;;;;;23.90;38.60;;;;;;1597389;74;574;-69
2022/05/01 11:49:09;;;;;;;;;;;24.00;38.60;;;;;;1604786;74;707;-70
2022/05/01 11:51:11;;;;;;;;;;;24.00;38.60;;;;;;1603067;73;714;-66
2022/05/01 11:53:17;;;;;;;;;;;24.00;38.60;;;;;;1598639;74;1916;-68
2022/05/01 11:55:19;;;;;;;;;;;23.90;38.50;;;;;;1577542;74;1447;-68
2022/05/01 12:04:25;;;;;;;;;;;24.00;38.50;;;;;;1586996;74;1658;-68
2022/05/01 12:06:29;;;;;;;;;;;23.90;38.60;;;;;;1602257;73;809;-68
2022/05/01 12:08:30;;;;;;;;;;;24.00;38.50;;;;;;1603224;74;597;-67
2022/05/01 12:10:32;;;;;;;;;;;23.90;38.50;;;;;;1605089;74;690;-67
2022/05/01 12:12:34;;;;;;;;;;;23.90;38.50;;;;;;1592032;74;1932;-67
2022/05/01 12:14:36;;;;;;;;;;;23.90;38.50;;;;;;1604141;74;1184;-68
2022/05/01 12:16:38;;;;;;;;;;;23.90;38.50;;;;;;1603565;74;575;-68
2022/05/01 12:18:41;;;;;;;;;;;24.00;38.40;;;;;;1605085;74;657;-65
2022/05/01 12:20:44;;;;;;;;;;;24.00;38.40;;;;;;1600878;74;1916;-69
2022/05/01 12:22:46;;;;;;;;;;;24.00;38.40;;;;;;1603775;74;785;-67
2022/05/01 12:24:48;;;;;;;;;;;24.00;38.40;;;;;;1591169;74;1207;-64
2022/05/01 12:26:52;;;;;;;;;;;23.90;38.40;;;;;;1589255;73;1523;-67
2022/05/01 12:28:54;;;;;;;;;;;23.90;38.40;;;;;;1586453;74;686;-68
2022/05/01 12:30:58;;;;;;;;;;;23.90;38.40;;;;;;1595286;74;693;-68
2022/05/01 12:33:00;;;;;;;;;;;23.90;38.40;;;;;;1597082;74;1910;-66
2022/05/01 12:35:03;;;;;;;;;;;23.90;38.50;;;;;;1587284;74;1114;-67
2022/05/01 12:37:07;;;;;;;;;;;24.00;38.40;;;;;;1601600;74;673;-68
2022/05/01 12:39:09;;;;;;;;;;;23.90;38.40;;;;;;1598238;74;1746;-68
2022/05/01 12:43:52;;;;;;;;;;;23.90;38.40;;;;;;1595274;74;1635;-68
2022/05/01 12:45:53;;;;;;;;;;;23.80;38.30;;;;;;1598876;74;549;-70
2022/05/01 12:47:57;;;;;;;;;;;23.90;38.40;;;;;;1597015;74;549;-65